sensor_id;sensor_type;location;lat;lon;timestamp;P1;durP1;ratioP1;P2;durP2;ratioP2
28762;SDS011;15918;51.270;6.522;2023-09-30T00:00:26;8.02;;;5.50;;
28762;SDS011;15918;51.270;6.522;2023-09-30T00:02:52;7.75;;;4.68;;
28762;SDS011;15918;51.270;6.522;2023-09-30T00:05:18;12.43;;;5.78;;
28762;SDS011;15918;51.270;6.522;2023-09-30T00:07:45;13.10;;;5.53;;
28762;SDS011;15918;51.270;6.522;2023-09-30T00:10:11;11.82;;;5.88;;
28762;SDS011;15918;51.270;6.522;2023-09-30T00:12:36;8.10;;;5.00;;
28762;SDS011;15918;51.270;6.522;2023-09-30T00:15:02;8.00;;;4.90;;
28762;SDS011;15918;51.270;6.522;2023-09-30T00:17:29;9.65;;;5.30;;
28762;SDS011;15918;51.270;6.522;2023-09-30T00:19:54;6.93;;;4.75;;
28762;SDS011;15918;51.270;6.522;2023-09-30T00:22:20;9.05;;;5.90;;
28762;SDS011;15918;51.270;6.522;2023-09-30T00:24:46;8.88;;;5.28;;
28762;SDS011;15918;51.270;6.522;2023-09-30T00:27:11;9.70;;;5.18;;
28762;SDS011;15918;51.270;6.522;2023-09-30T00:29:37;11.18;;;5.97;;
28762;SDS011;15918;51.270;6.522;2023-09-30T00:32:03;8.43;;;5.07;;
28762;SDS011;15918;51.270;6.522;2023-09-30T00:34:31;10.45;;;6.30;;
28762;SDS011;15918;51.270;6.522;2023-09-30T00:36:58;11.40;;;6.10;;
28762;SDS011;15918;51.270;6.522;2023-09-30T00:39:24;13.90;;;5.97;;
28762;SDS011;15918;51.270;6.522;2023-09-30T00:41:52;14.35;;;6.13;;
28762;SDS011;15918;51.270;6.522;2023-09-30T00:44:19;11.82;;;5.68;;
28762;SDS011;15918;51.270;6.522;2023-09-30T00:46:45;11.48;;;5.95;;
28762;SDS011;15918;51.270;6.522;2023-09-30T00:49:10;12.20;;;6.03;;
28762;SDS011;15918;51.270;6.522;2023-09-30T00:51:39;10.60;;;5.65;;
28762;SDS011;15918;51.270;6.522;2023-09-30T00:54:05;10.88;;;6.07;;
28762;SDS011;15918;51.270;6.522;2023-09-30T00:56:33;9.02;;;5.47;;
28762;SDS011;15918;51.270;6.522;2023-09-30T00:59:01;9.55;;;5.25;;
28762;SDS011;15918;51.270;6.522;2023-09-30T01:01:27;8.70;;;5.53;;
28762;SDS011;15918;51.270;6.522;2023-09-30T01:03:52;9.77;;;5.30;;
28762;SDS011;15918;51.270;6.522;2023-09-30T01:06:18;10.30;;;5.60;;
28762;SDS011;15918;51.270;6.522;2023-09-30T01:08:44;11.57;;;6.28;;
28762;SDS011;15918;51.270;6.522;2023-09-30T01:11:10;16.05;;;6.15;;
28762;SDS011;15918;51.270;6.522;2023-09-30T01:13:36;10.65;;;6.13;;
28762;SDS011;15918;51.270;6.522;2023-09-30T01:16:06;12.07;;;6.32;;
28762;SDS011;15918;51.270;6.522;2023-09-30T01:18:38;11.38;;;6.72;;
28762;SDS011;15918;51.270;6.522;2023-09-30T01:21:07;12.57;;;5.82;;
28762;SDS011;15918;51.270;6.522;2023-09-30T01:23:34;11.15;;;6.10;;
28762;SDS011;15918;51.270;6.522;2023-09-30T01:26:03;11.38;;;6.47;;
28762;SDS011;15918;51.270;6.522;2023-09-30T01:28:31;9.77;;;5.72;;
28762;SDS011;15918;51.270;6.522;2023-09-30T01:30:57;15.63;;;6.75;;
28762;SDS011;15918;51.270;6.522;2023-09-30T01:33:23;12.50;;;7.07;;
28762;SDS011;15918;51.270;6.522;2023-09-30T01:35:49;11.57;;;6.70;;
28762;SDS011;15918;51.270;6.522;2023-09-30T01:38:14;12.07;;;6.50;;
28762;SDS011;15918;51.270;6.522;2023-09-30T01:40:40;12.65;;;6.55;;
28762;SDS011;15918;51.270;6.522;2023-09-30T01:43:07;11.52;;;6.22;;
28762;SDS011;15918;51.270;6.522;2023-09-30T01:45:32;11.93;;;6.22;;
28762;SDS011;15918;51.270;6.522;2023-09-30T01:47:58;9.50;;;5.57;;
28762;SDS011;15918;51.270;6.522;2023-09-30T01:50:24;10.15;;;5.95;;
28762;SDS011;15918;51.270;6.522;2023-09-30T01:52:49;10.48;;;5.93;;
28762;SDS011;15918;51.270;6.522;2023-09-30T01:55:15;10.95;;;6.03;;
28762;SDS011;15918;51.270;6.522;2023-09-30T01:57:40;10.77;;;6.35;;
28762;SDS011;15918;51.270;6.522;2023-09-30T02:00:06;10.07;;;6.18;;
28762;SDS011;15918;51.270;6.522;2023-09-30T02:02:35;12.48;;;6.18;;
28762;SDS011;15918;51.270;6.522;2023-09-30T02:05:02;10.13;;;6.32;;
28762;SDS011;15918;51.270;6.522;2023-09-30T02:07:28;11.55;;;6.07;;
28762;SDS011;15918;51.270;6.522;2023-09-30T02:09:54;10.70;;;5.53;;
28762;SDS011;15918;51.270;6.522;2023-09-30T02:12:20;9.38;;;5.15;;
28762;SDS011;15918;51.270;6.522;2023-09-30T02:14:46;10.25;;;5.43;;
28762;SDS011;15918;51.270;6.522;2023-09-30T02:17:12;11.90;;;5.93;;
28762;SDS011;15918;51.270;6.522;2023-09-30T02:19:38;9.68;;;5.40;;
28762;SDS011;15918;51.270;6.522;2023-09-30T02:22:05;10.90;;;5.47;;
28762;SDS011;15918;51.270;6.522;2023-09-30T02:24:31;10.43;;;5.22;;
28762;SDS011;15918;51.270;6.522;2023-09-30T02:26:57;11.05;;;5.72;;
28762;SDS011;15918;51.270;6.522;2023-09-30T02:29:23;12.02;;;5.93;;
28762;SDS011;15918;51.270;6.522;2023-09-30T02:31:49;9.05;;;5.50;;
28762;SDS011;15918;51.270;6.522;2023-09-30T02:34:15;9.95;;;4.70;;
28762;SDS011;15918;51.270;6.522;2023-09-30T02:36:40;8.60;;;4.90;;
28762;SDS011;15918;51.270;6.522;2023-09-30T02:39:07;9.70;;;5.13;;
28762;SDS011;15918;51.270;6.522;2023-09-30T02:41:34;8.85;;;5.20;;
28762;SDS011;15918;51.270;6.522;2023-09-30T02:44:00;12.70;;;5.43;;
28762;SDS011;15918;51.270;6.522;2023-09-30T02:46:26;8.23;;;5.50;;
28762;SDS011;15918;51.270;6.522;2023-09-30T02:48:53;8.35;;;5.03;;
28762;SDS011;15918;51.270;6.522;2023-09-30T02:51:19;10.43;;;5.03;;
28762;SDS011;15918;51.270;6.522;2023-09-30T02:53:44;6.75;;;4.57;;
28762;SDS011;15918;51.270;6.522;2023-09-30T02:56:11;12.27;;;5.82;;
28762;SDS011;15918;51.270;6.522;2023-09-30T02:58:36;10.00;;;4.85;;
28762;SDS011;15918;51.270;6.522;2023-09-30T03:01:03;9.60;;;5.47;;
28762;SDS011;15918;51.270;6.522;2023-09-30T03:03:29;10.15;;;5.40;;
28762;SDS011;15918;51.270;6.522;2023-09-30T03:05:56;7.80;;;4.40;;
28762;SDS011;15918;51.270;6.522;2023-09-30T03:08:22;14.52;;;5.15;;
28762;SDS011;15918;51.270;6.522;2023-09-30T03:10:50;9.65;;;5.35;;
28762;SDS011;15918;51.270;6.522;2023-09-30T03:13:15;10.25;;;5.47;;
28762;SDS011;15918;51.270;6.522;2023-09-30T03:15:43;7.85;;;5.20;;
28762;SDS011;15918;51.270;6.522;2023-09-30T03:18:09;7.95;;;4.57;;
28762;SDS011;15918;51.270;6.522;2023-09-30T03:20:35;9.77;;;5.30;;
28762;SDS011;15918;51.270;6.522;2023-09-30T03:23:05;10.55;;;5.72;;
28762;SDS011;15918;51.270;6.522;2023-09-30T03:25:30;10.60;;;5.15;;
28762;SDS011;15918;51.270;6.522;2023-09-30T03:27:57;7.85;;;5.25;;
28762;SDS011;15918;51.270;6.522;2023-09-30T03:30:23;7.22;;;4.90;;
28762;SDS011;15918;51.270;6.522;2023-09-30T03:32:49;7.88;;;4.95;;
28762;SDS011;15918;51.270;6.522;2023-09-30T03:35:15;9.77;;;5.28;;
28762;SDS011;15918;51.270;6.522;2023-09-30T03:37:43;9.10;;;5.00;;
28762;SDS011;15918;51.270;6.522;2023-09-30T03:40:10;6.60;;;4.57;;
28762;SDS011;15918;51.270;6.522;2023-09-30T03:42:43;7.97;;;4.78;;
28762;SDS011;15918;51.270;6.522;2023-09-30T03:45:09;12.43;;;5.80;;
28762;SDS011;15918;51.270;6.522;2023-09-30T03:47:36;8.48;;;4.95;;
28762;SDS011;15918;51.270;6.522;2023-09-30T03:50:03;9.05;;;4.78;;
28762;SDS011;15918;51.270;6.522;2023-09-30T03:52:30;9.07;;;5.15;;
28762;SDS011;15918;51.270;6.522;2023-09-30T03:54:58;11.40;;;5.85;;
28762;SDS011;15918;51.270;6.522;2023-09-30T03:57:31;9.68;;;5.53;;
28762;SDS011;15918;51.270;6.522;2023-09-30T03:59:58;9.60;;;5.20;;
28762;SDS011;15918;51.270;6.522;2023-09-30T04:02:24;9.77;;;5.18;;
28762;SDS011;15918;51.270;6.522;2023-09-30T04:04:50;12.13;;;5.53;;
28762;SDS011;15918;51.270;6.522;2023-09-30T04:07:17;11.10;;;6.10;;
28762;SDS011;15918;51.270;6.522;2023-09-30T04:09:42;10.43;;;5.45;;
28762;SDS011;15918;51.270;6.522;2023-09-30T04:12:08;8.60;;;5.35;;
28762;SDS011;15918;51.270;6.522;2023-09-30T04:14:33;8.13;;;5.75;;
28762;SDS011;15918;51.270;6.522;2023-09-30T04:16:59;8.20;;;6.00;;
28762;SDS011;15918;51.270;6.522;2023-09-30T04:19:25;11.85;;;5.90;;
28762;SDS011;15918;51.270;6.522;2023-09-30T04:21:50;9.77;;;5.65;;
28762;SDS011;15918;51.270;6.522;2023-09-30T04:24:16;8.93;;;5.65;;
28762;SDS011;15918;51.270;6.522;2023-09-30T04:26:44;11.70;;;5.90;;
28762;SDS011;15918;51.270;6.522;2023-09-30T04:29:09;7.32;;;4.75;;
28762;SDS011;15918;51.270;6.522;2023-09-30T04:31:36;7.20;;;4.93;;
28762;SDS011;15918;51.270;6.522;2023-09-30T04:34:04;7.47;;;5.68;;
28762;SDS011;15918;51.270;6.522;2023-09-30T04:36:30;9.43;;;6.30;;
28762;SDS011;15918;51.270;6.522;2023-09-30T04:38:56;8.40;;;5.35;;
28762;SDS011;15918;51.270;6.522;2023-09-30T04:41:22;8.68;;;6.40;;
28762;SDS011;15918;51.270;6.522;2023-09-30T04:43:50;9.75;;;5.63;;
28762;SDS011;15918;51.270;6.522;2023-09-30T04:46:17;9.70;;;6.35;;
28762;SDS011;15918;51.270;6.522;2023-09-30T04:48:45;10.02;;;5.72;;
28762;SDS011;15918;51.270;6.522;2023-09-30T04:51:13;6.82;;;5.45;;
28762;SDS011;15918;51.270;6.522;2023-09-30T04:53:41;7.35;;;5.90;;
28762;SDS011;15918;51.270;6.522;2023-09-30T04:56:07;11.45;;;6.25;;
28762;SDS011;15918;51.270;6.522;2023-09-30T04:58:32;8.10;;;6.35;;
28762;SDS011;15918;51.270;6.522;2023-09-30T05:00:58;6.97;;;5.90;;
28762;SDS011;15918;51.270;6.522;2023-09-30T05:03:23;8.10;;;6.00;;
28762;SDS011;15918;51.270;6.522;2023-09-30T05:05:50;11.07;;;6.95;;
28762;SDS011;15918;51.270;6.522;2023-09-30T05:08:18;8.25;;;5.82;;
28762;SDS011;15918;51.270;6.522;2023-09-30T05:10:44;7.13;;;5.70;;
28762;SDS011;15918;51.270;6.522;2023-09-30T05:13:11;7.13;;;5.18;;
28762;SDS011;15918;51.270;6.522;2023-09-30T05:15:37;6.90;;;5.35;;
28762;SDS011;15918;51.270;6.522;2023-09-30T05:18:03;6.95;;;5.78;;
28762;SDS011;15918;51.270;6.522;2023-09-30T05:20:30;8.82;;;6.45;;
28762;SDS011;15918;51.270;6.522;2023-09-30T05:22:55;10.60;;;6.60;;
28762;SDS011;15918;51.270;6.522;2023-09-30T05:25:21;7.85;;;6.45;;
28762;SDS011;15918;51.270;6.522;2023-09-30T05:27:51;10.77;;;6.82;;
28762;SDS011;15918;51.270;6.522;2023-09-30T05:30:17;8.00;;;6.07;;
28762;SDS011;15918;51.270;6.522;2023-09-30T05:32:44;8.80;;;6.53;;
28762;SDS011;15918;51.270;6.522;2023-09-30T05:35:11;6.68;;;5.97;;
28762;SDS011;15918;51.270;6.522;2023-09-30T05:37:41;9.10;;;6.07;;
28762;SDS011;15918;51.270;6.522;2023-09-30T05:40:07;7.28;;;6.10;;
28762;SDS011;15918;51.270;6.522;2023-09-30T05:42:42;7.10;;;5.50;;
28762;SDS011;15918;51.270;6.522;2023-09-30T05:45:10;8.48;;;5.80;;
28762;SDS011;15918;51.270;6.522;2023-09-30T05:47:38;8.70;;;7.25;;
28762;SDS011;15918;51.270;6.522;2023-09-30T05:50:04;7.38;;;6.68;;
28762;SDS011;15918;51.270;6.522;2023-09-30T05:52:32;6.40;;;5.80;;
28762;SDS011;15918;51.270;6.522;2023-09-30T05:54:58;5.35;;;4.85;;
28762;SDS011;15918;51.270;6.522;2023-09-30T05:57:25;6.97;;;5.32;;
28762;SDS011;15918;51.270;6.522;2023-09-30T05:59:51;5.45;;;4.45;;
28762;SDS011;15918;51.270;6.522;2023-09-30T06:02:17;5.68;;;4.32;;
28762;SDS011;15918;51.270;6.522;2023-09-30T06:04:43;5.85;;;4.50;;
28762;SDS011;15918;51.270;6.522;2023-09-30T06:07:08;4.82;;;3.80;;
28762;SDS011;15918;51.270;6.522;2023-09-30T06:09:35;4.00;;;3.60;;
28762;SDS011;15918;51.270;6.522;2023-09-30T06:12:00;4.03;;;3.38;;
28762;SDS011;15918;51.270;6.522;2023-09-30T06:14:28;6.50;;;4.25;;
28762;SDS011;15918;51.270;6.522;2023-09-30T06:16:56;4.32;;;3.70;;
28762;SDS011;15918;51.270;6.522;2023-09-30T06:19:22;4.82;;;4.30;;
28762;SDS011;15918;51.270;6.522;2023-09-30T06:21:48;4.82;;;4.30;;
28762;SDS011;15918;51.270;6.522;2023-09-30T06:24:15;5.97;;;5.35;;
28762;SDS011;15918;51.270;6.522;2023-09-30T06:26:41;7.55;;;5.78;;
28762;SDS011;15918;51.270;6.522;2023-09-30T06:29:06;7.47;;;5.63;;
28762;SDS011;15918;51.270;6.522;2023-09-30T06:31:32;6.18;;;5.57;;
28762;SDS011;15918;51.270;6.522;2023-09-30T06:33:59;7.50;;;5.65;;
28762;SDS011;15918;51.270;6.522;2023-09-30T06:36:25;7.63;;;6.32;;
28762;SDS011;15918;51.270;6.522;2023-09-30T06:38:51;9.13;;;6.70;;
28762;SDS011;15918;51.270;6.522;2023-09-30T06:41:17;10.48;;;7.22;;
28762;SDS011;15918;51.270;6.522;2023-09-30T06:43:43;8.32;;;7.43;;
28762;SDS011;15918;51.270;6.522;2023-09-30T06:46:09;8.75;;;7.82;;
28762;SDS011;15918;51.270;6.522;2023-09-30T06:48:35;9.45;;;8.15;;
28762;SDS011;15918;51.270;6.522;2023-09-30T06:51:02;9.98;;;8.50;;
28762;SDS011;15918;51.270;6.522;2023-09-30T06:53:27;12.38;;;9.60;;
28762;SDS011;15918;51.270;6.522;2023-09-30T06:55:53;11.60;;;9.05;;
28762;SDS011;15918;51.270;6.522;2023-09-30T06:58:19;12.00;;;9.55;;
28762;SDS011;15918;51.270;6.522;2023-09-30T07:00:49;10.55;;;9.45;;
28762;SDS011;15918;51.270;6.522;2023-09-30T07:03:15;11.43;;;10.23;;
28762;SDS011;15918;51.270;6.522;2023-09-30T07:05:42;10.55;;;9.45;;
28762;SDS011;15918;51.270;6.522;2023-09-30T07:08:09;12.95;;;11.15;;
28762;SDS011;15918;51.270;6.522;2023-09-30T07:10:34;13.25;;;10.23;;
28762;SDS011;15918;51.270;6.522;2023-09-30T07:13:03;13.10;;;11.13;;
28762;SDS011;15918;51.270;6.522;2023-09-30T07:15:31;12.38;;;10.55;;
28762;SDS011;15918;51.270;6.522;2023-09-30T07:17:57;13.70;;;11.43;;
28762;SDS011;15918;51.270;6.522;2023-09-30T07:20:22;14.32;;;11.88;;
28762;SDS011;15918;51.270;6.522;2023-09-30T07:22:48;14.00;;;12.20;;
28762;SDS011;15918;51.270;6.522;2023-09-30T07:25:14;14.25;;;12.13;;
28762;SDS011;15918;51.270;6.522;2023-09-30T07:27:41;13.77;;;12.20;;
28762;SDS011;15918;51.270;6.522;2023-09-30T07:30:11;15.90;;;12.45;;
28762;SDS011;15918;51.270;6.522;2023-09-30T07:32:43;13.05;;;11.63;;
28762;SDS011;15918;51.270;6.522;2023-09-30T07:35:09;14.80;;;12.82;;
28762;SDS011;15918;51.270;6.522;2023-09-30T07:37:36;14.65;;;13.15;;
28762;SDS011;15918;51.270;6.522;2023-09-30T07:40:01;15.00;;;13.50;;
28762;SDS011;15918;51.270;6.522;2023-09-30T07:42:27;14.77;;;13.00;;
28762;SDS011;15918;51.270;6.522;2023-09-30T07:44:53;16.48;;;13.63;;
28762;SDS011;15918;51.270;6.522;2023-09-30T07:47:19;15.77;;;14.07;;
28762;SDS011;15918;51.270;6.522;2023-09-30T07:49:44;17.30;;;14.77;;
28762;SDS011;15918;51.270;6.522;2023-09-30T07:52:10;18.58;;;14.82;;
28762;SDS011;15918;51.270;6.522;2023-09-30T07:54:36;13.05;;;11.63;;
28762;SDS011;15918;51.270;6.522;2023-09-30T07:57:01;15.05;;;13.48;;
28762;SDS011;15918;51.270;6.522;2023-09-30T07:59:27;15.73;;;13.05;;
28762;SDS011;15918;51.270;6.522;2023-09-30T08:01:53;15.23;;;13.68;;
28762;SDS011;15918;51.270;6.522;2023-09-30T08:04:19;14.40;;;12.88;;
28762;SDS011;15918;51.270;6.522;2023-09-30T08:06:44;18.55;;;14.30;;
28762;SDS011;15918;51.270;6.522;2023-09-30T08:09:13;18.13;;;14.48;;
28762;SDS011;15918;51.270;6.522;2023-09-30T08:11:39;17.88;;;15.77;;
28762;SDS011;15918;51.270;6.522;2023-09-30T08:14:05;17.13;;;15.43;;
28762;SDS011;15918;51.270;6.522;2023-09-30T08:16:38;19.38;;;17.20;;
28762;SDS011;15918;51.270;6.522;2023-09-30T08:19:03;18.42;;;16.55;;
28762;SDS011;15918;51.270;6.522;2023-09-30T08:21:30;18.10;;;16.20;;
28762;SDS011;15918;51.270;6.522;2023-09-30T08:23:56;20.27;;;16.10;;
28762;SDS011;15918;51.270;6.522;2023-09-30T08:26:22;22.20;;;15.75;;
28762;SDS011;15918;51.270;6.522;2023-09-30T08:28:47;18.70;;;15.27;;
28762;SDS011;15918;51.270;6.522;2023-09-30T08:31:13;19.10;;;15.80;;
28762;SDS011;15918;51.270;6.522;2023-09-30T08:33:39;20.00;;;15.30;;
28762;SDS011;15918;51.270;6.522;2023-09-30T08:36:10;16.95;;;14.68;;
28762;SDS011;15918;51.270;6.522;2023-09-30T08:38:37;18.08;;;14.38;;
28762;SDS011;15918;51.270;6.522;2023-09-30T08:41:04;20.90;;;15.88;;
28762;SDS011;15918;51.270;6.522;2023-09-30T08:43:30;16.85;;;14.07;;
28762;SDS011;15918;51.270;6.522;2023-09-30T08:46:00;15.52;;;13.90;;
28762;SDS011;15918;51.270;6.522;2023-09-30T08:48:27;19.10;;;14.10;;
28762;SDS011;15918;51.270;6.522;2023-09-30T08:50:55;19.45;;;14.85;;
28762;SDS011;15918;51.270;6.522;2023-09-30T08:53:23;19.23;;;14.40;;
28762;SDS011;15918;51.270;6.522;2023-09-30T08:55:52;17.52;;;13.38;;
28762;SDS011;15918;51.270;6.522;2023-09-30T08:58:24;16.23;;;12.80;;
28762;SDS011;15918;51.270;6.522;2023-09-30T09:00:52;16.38;;;11.23;;
28762;SDS011;15918;51.270;6.522;2023-09-30T09:03:18;14.52;;;12.30;;
28762;SDS011;15918;51.270;6.522;2023-09-30T09:05:45;17.05;;;11.55;;
28762;SDS011;15918;51.270;6.522;2023-09-30T09:08:11;15.68;;;11.30;;
28762;SDS011;15918;51.270;6.522;2023-09-30T09:10:53;14.43;;;11.02;;
28762;SDS011;15918;51.270;6.522;2023-09-30T09:13:21;14.75;;;10.82;;
28762;SDS011;15918;51.270;6.522;2023-09-30T09:15:47;12.32;;;9.93;;
28762;SDS011;15918;51.270;6.522;2023-09-30T09:18:15;14.02;;;9.40;;
28762;SDS011;15918;51.270;6.522;2023-09-30T09:21:07;13.25;;;9.43;;
28762;SDS011;15918;51.270;6.522;2023-09-30T09:23:38;12.63;;;9.60;;
28762;SDS011;15918;51.270;6.522;2023-09-30T09:26:05;13.75;;;9.32;;
28762;SDS011;15918;51.270;6.522;2023-09-30T09:28:36;14.57;;;9.05;;
28762;SDS011;15918;51.270;6.522;2023-09-30T09:31:15;14.15;;;9.15;;
28762;SDS011;15918;51.270;6.522;2023-09-30T09:33:45;12.10;;;8.25;;
28762;SDS011;15918;51.270;6.522;2023-09-30T09:36:11;10.55;;;7.97;;
28762;SDS011;15918;51.270;6.522;2023-09-30T09:38:43;12.05;;;7.90;;
28762;SDS011;15918;51.270;6.522;2023-09-30T09:41:09;9.70;;;7.43;;
28762;SDS011;15918;51.270;6.522;2023-09-30T09:43:36;13.60;;;7.40;;
28762;SDS011;15918;51.270;6.522;2023-09-30T09:46:04;10.82;;;7.38;;
28762;SDS011;15918;51.270;6.522;2023-09-30T09:48:36;16.65;;;8.65;;
28762;SDS011;15918;51.270;6.522;2023-09-30T09:51:02;10.95;;;7.55;;
28762;SDS011;15918;51.270;6.522;2023-09-30T09:53:35;11.65;;;7.20;;
28762;SDS011;15918;51.270;6.522;2023-09-30T09:56:03;11.43;;;7.13;;
28762;SDS011;15918;51.270;6.522;2023-09-30T09:58:31;16.48;;;8.35;;
28762;SDS011;15918;51.270;6.522;2023-09-30T10:01:03;10.13;;;6.78;;
28762;SDS011;15918;51.270;6.522;2023-09-30T10:03:31;11.82;;;6.65;;
28762;SDS011;15918;51.270;6.522;2023-09-30T10:05:58;15.30;;;8.07;;
28762;SDS011;15918;51.270;6.522;2023-09-30T10:08:35;12.52;;;7.70;;
28762;SDS011;15918;51.270;6.522;2023-09-30T10:11:04;14.77;;;7.43;;
28762;SDS011;15918;51.270;6.522;2023-09-30T10:24:47;10.95;;;6.03;;
28762;SDS011;15918;51.270;6.522;2023-09-30T10:35:15;12.52;;;6.70;;
28762;SDS011;15918;51.270;6.522;2023-09-30T10:40:47;10.38;;;6.55;;
28762;SDS011;15918;51.270;6.522;2023-09-30T10:43:32;14.30;;;6.72;;
28762;SDS011;15918;51.270;6.522;2023-09-30T10:46:02;14.00;;;6.32;;
28762;SDS011;15918;51.270;6.522;2023-09-30T10:48:32;10.32;;;5.97;;
28762;SDS011;15918;51.270;6.522;2023-09-30T10:51:19;8.88;;;5.93;;
28762;SDS011;15918;51.270;6.522;2023-09-30T10:53:49;10.82;;;5.75;;
28762;SDS011;15918;51.270;6.522;2023-09-30T10:56:22;10.32;;;5.30;;
28762;SDS011;15918;51.270;6.522;2023-09-30T10:58:48;9.05;;;5.00;;
28762;SDS011;15918;51.270;6.522;2023-09-30T11:01:19;8.40;;;5.28;;
28762;SDS011;15918;51.270;6.522;2023-09-30T11:03:46;7.65;;;4.78;;
28762;SDS011;15918;51.270;6.522;2023-09-30T11:06:16;10.57;;;5.30;;
28762;SDS011;15918;51.270;6.522;2023-09-30T11:08:45;10.23;;;5.28;;
28762;SDS011;15918;51.270;6.522;2023-09-30T11:14:03;9.43;;;5.60;;
28762;SDS011;15918;51.270;6.522;2023-09-30T11:16:41;12.73;;;5.18;;
28762;SDS011;15918;51.270;6.522;2023-09-30T11:19:08;8.68;;;4.47;;
28762;SDS011;15918;51.270;6.522;2023-09-30T11:21:34;10.50;;;5.50;;
28762;SDS011;15918;51.270;6.522;2023-09-30T11:24:00;8.55;;;4.60;;
28762;SDS011;15918;51.270;6.522;2023-09-30T11:26:30;11.57;;;5.07;;
28762;SDS011;15918;51.270;6.522;2023-09-30T11:29:15;11.18;;;5.72;;
28762;SDS011;15918;51.270;6.522;2023-09-30T11:31:42;12.80;;;6.03;;
28762;SDS011;15918;51.270;6.522;2023-09-30T11:34:11;11.82;;;6.22;;
28762;SDS011;15918;51.270;6.522;2023-09-30T11:36:38;7.65;;;5.25;;
28762;SDS011;15918;51.270;6.522;2023-09-30T11:39:08;13.00;;;5.85;;
28762;SDS011;15918;51.270;6.522;2023-09-30T11:41:37;9.93;;;5.35;;
28762;SDS011;15918;51.270;6.522;2023-09-30T11:46:48;11.45;;;6.75;;
28762;SDS011;15918;51.270;6.522;2023-09-30T11:49:33;9.40;;;5.45;;
28762;SDS011;15918;51.270;6.522;2023-09-30T11:52:00;10.05;;;5.20;;
28762;SDS011;15918;51.270;6.522;2023-09-30T11:54:31;8.00;;;4.75;;
28762;SDS011;15918;51.270;6.522;2023-09-30T11:56:59;15.80;;;5.30;;
28762;SDS011;15918;51.270;6.522;2023-09-30T11:59:25;12.35;;;5.10;;
28762;SDS011;15918;51.270;6.522;2023-09-30T12:01:51;8.57;;;4.90;;
28762;SDS011;15918;51.270;6.522;2023-09-30T12:04:17;6.03;;;4.22;;
28762;SDS011;15918;51.270;6.522;2023-09-30T12:06:44;7.63;;;4.18;;
28762;SDS011;15918;51.270;6.522;2023-09-30T12:09:12;8.82;;;3.88;;
28762;SDS011;15918;51.270;6.522;2023-09-30T12:11:40;7.78;;;4.32;;
28762;SDS011;15918;51.270;6.522;2023-09-30T12:14:09;7.90;;;4.13;;
28762;SDS011;15918;51.270;6.522;2023-09-30T12:16:35;9.57;;;4.43;;
28762;SDS011;15918;51.270;6.522;2023-09-30T12:19:04;7.53;;;4.50;;
28762;SDS011;15918;51.270;6.522;2023-09-30T12:21:31;10.35;;;4.50;;
28762;SDS011;15918;51.270;6.522;2023-09-30T12:23:57;7.90;;;3.88;;
28762;SDS011;15918;51.270;6.522;2023-09-30T12:26:24;9.40;;;4.28;;
28762;SDS011;15918;51.270;6.522;2023-09-30T12:28:49;10.05;;;4.45;;
28762;SDS011;15918;51.270;6.522;2023-09-30T12:31:15;8.70;;;4.35;;
28762;SDS011;15918;51.270;6.522;2023-09-30T12:33:41;8.35;;;3.67;;
28762;SDS011;15918;51.270;6.522;2023-09-30T12:36:07;6.50;;;4.10;;
28762;SDS011;15918;51.270;6.522;2023-09-30T12:38:32;7.80;;;5.00;;
28762;SDS011;15918;51.270;6.522;2023-09-30T12:40:59;9.93;;;5.25;;
28762;SDS011;15918;51.270;6.522;2023-09-30T12:43:25;8.32;;;4.40;;
28762;SDS011;15918;51.270;6.522;2023-09-30T12:45:51;9.10;;;4.82;;
28762;SDS011;15918;51.270;6.522;2023-09-30T12:48:16;10.32;;;4.95;;
28762;SDS011;15918;51.270;6.522;2023-09-30T12:50:43;8.30;;;4.57;;
28762;SDS011;15918;51.270;6.522;2023-09-30T12:53:09;9.63;;;4.72;;
28762;SDS011;15918;51.270;6.522;2023-09-30T12:55:35;8.63;;;5.03;;
28762;SDS011;15918;51.270;6.522;2023-09-30T12:58:01;9.20;;;4.63;;
28762;SDS011;15918;51.270;6.522;2023-09-30T13:00:26;6.78;;;5.15;;
28762;SDS011;15918;51.270;6.522;2023-09-30T13:02:55;9.60;;;5.22;;
28762;SDS011;15918;51.270;6.522;2023-09-30T13:05:21;7.25;;;4.50;;
28762;SDS011;15918;51.270;6.522;2023-09-30T13:07:47;5.70;;;4.20;;
28762;SDS011;15918;51.270;6.522;2023-09-30T13:10:13;9.23;;;4.60;;
28762;SDS011;15918;51.270;6.522;2023-09-30T13:12:39;9.02;;;5.45;;
28762;SDS011;15918;51.270;6.522;2023-09-30T13:15:04;7.72;;;4.72;;
28762;SDS011;15918;51.270;6.522;2023-09-30T13:17:30;5.88;;;4.30;;
28762;SDS011;15918;51.270;6.522;2023-09-30T13:19:56;8.10;;;4.93;;
28762;SDS011;15918;51.270;6.522;2023-09-30T13:22:23;10.88;;;6.32;;
28762;SDS011;15918;51.270;6.522;2023-09-30T13:24:48;11.75;;;6.00;;
28762;SDS011;15918;51.270;6.522;2023-09-30T13:27:14;9.70;;;5.78;;
28762;SDS011;15918;51.270;6.522;2023-09-30T13:29:43;10.20;;;5.47;;
28762;SDS011;15918;51.270;6.522;2023-09-30T13:32:10;9.95;;;5.43;;
28762;SDS011;15918;51.270;6.522;2023-09-30T13:34:36;9.80;;;5.25;;
28762;SDS011;15918;51.270;6.522;2023-09-30T13:37:02;9.10;;;5.50;;
28762;SDS011;15918;51.270;6.522;2023-09-30T13:39:27;9.27;;;5.32;;
28762;SDS011;15918;51.270;6.522;2023-09-30T13:41:54;8.43;;;5.05;;
28762;SDS011;15918;51.270;6.522;2023-09-30T13:44:19;8.48;;;5.05;;
28762;SDS011;15918;51.270;6.522;2023-09-30T13:46:45;9.27;;;5.50;;
28762;SDS011;15918;51.270;6.522;2023-09-30T13:49:12;13.25;;;5.30;;
28762;SDS011;15918;51.270;6.522;2023-09-30T13:51:38;7.72;;;5.28;;
28762;SDS011;15918;51.270;6.522;2023-09-30T13:54:04;10.70;;;5.32;;
28762;SDS011;15918;51.270;6.522;2023-09-30T13:56:32;7.03;;;4.28;;
28762;SDS011;15918;51.270;6.522;2023-09-30T13:58:58;6.38;;;4.75;;
28762;SDS011;15918;51.270;6.522;2023-09-30T14:01:25;7.55;;;4.80;;
28762;SDS011;15918;51.270;6.522;2023-09-30T14:03:51;10.00;;;4.45;;
28762;SDS011;15918;51.270;6.522;2023-09-30T14:06:20;7.43;;;5.32;;
28762;SDS011;15918;51.270;6.522;2023-09-30T14:08:46;7.53;;;4.90;;
28762;SDS011;15918;51.270;6.522;2023-09-30T14:11:12;8.05;;;4.78;;
28762;SDS011;15918;51.270;6.522;2023-09-30T14:13:38;7.63;;;4.55;;
28762;SDS011;15918;51.270;6.522;2023-09-30T14:16:07;9.15;;;4.82;;
28762;SDS011;15918;51.270;6.522;2023-09-30T14:18:33;6.93;;;4.57;;
28762;SDS011;15918;51.270;6.522;2023-09-30T14:20:59;8.55;;;4.68;;
28762;SDS011;15918;51.270;6.522;2023-09-30T14:23:26;7.90;;;4.97;;
28762;SDS011;15918;51.270;6.522;2023-09-30T14:25:53;8.02;;;4.70;;
28762;SDS011;15918;51.270;6.522;2023-09-30T14:28:20;9.52;;;5.32;;
28762;SDS011;15918;51.270;6.522;2023-09-30T14:30:46;7.93;;;4.90;;
28762;SDS011;15918;51.270;6.522;2023-09-30T14:33:15;8.40;;;5.68;;
28762;SDS011;15918;51.270;6.522;2023-09-30T14:35:41;8.30;;;6.00;;
28762;SDS011;15918;51.270;6.522;2023-09-30T14:38:08;8.25;;;6.00;;
28762;SDS011;15918;51.270;6.522;2023-09-30T14:40:36;8.63;;;5.63;;
28762;SDS011;15918;51.270;6.522;2023-09-30T14:43:06;8.00;;;5.43;;
28762;SDS011;15918;51.270;6.522;2023-09-30T14:45:36;6.75;;;5.20;;
28762;SDS011;15918;51.270;6.522;2023-09-30T14:48:04;7.22;;;5.88;;
28762;SDS011;15918;51.270;6.522;2023-09-30T14:50:34;8.18;;;5.60;;
28762;SDS011;15918;51.270;6.522;2023-09-30T14:53:01;8.50;;;5.57;;
28762;SDS011;15918;51.270;6.522;2023-09-30T14:55:27;9.40;;;5.70;;
28762;SDS011;15918;51.270;6.522;2023-09-30T14:57:55;8.25;;;5.30;;
28762;SDS011;15918;51.270;6.522;2023-09-30T15:00:20;8.65;;;5.10;;
28762;SDS011;15918;51.270;6.522;2023-09-30T15:02:49;9.88;;;6.22;;
28762;SDS011;15918;51.270;6.522;2023-09-30T15:05:15;10.38;;;5.82;;